createdAt,value
2018-11-03T09:22:25.140Z,4.77
2018-11-03T09:24:53.695Z,6.10
2018-11-03T09:27:22.346Z,7.40
2018-11-03T09:29:51.031Z,4.80
2018-11-03T09:32:19.733Z,4.97
2018-11-03T09:34:48.445Z,5.57
2018-11-03T09:37:17.153Z,5.07
2018-11-03T09:39:45.569Z,5.70
2018-11-03T09:42:13.911Z,6.33
2018-11-03T09:44:42.351Z,7.53
2018-11-03T09:47:11.043Z,6.60
2018-11-03T09:49:39.707Z,4.67
2018-11-03T09:52:08.382Z,5.23
2018-11-03T09:54:37.080Z,12.77
2018-11-03T09:57:06.064Z,6.03
2018-11-03T09:59:34.455Z,5.33
2018-11-03T10:02:03.137Z,5.30
2018-11-03T10:04:31.815Z,6.00
2018-11-03T10:07:00.628Z,6.00
2018-11-03T10:09:28.993Z,6.90
2018-11-03T10:11:57.460Z,5.47
2018-11-03T10:14:26.717Z,5.03
2018-11-03T10:16:55.255Z,4.63
2018-11-03T10:19:23.932Z,5.80
2018-11-03T10:21:52.630Z,4.70
2018-11-03T10:24:21.301Z,4.23
2018-11-03T10:26:49.999Z,5.17
2018-11-03T10:29:18.892Z,4.33
2018-11-03T10:31:47.360Z,4.07
2018-11-03T10:34:15.679Z,4.40
2018-11-03T10:36:44.340Z,5.93
2018-11-03T10:39:13.954Z,3.93
2018-11-03T10:41:43.018Z,4.30
2018-11-03T10:44:12.123Z,3.30
2018-11-03T10:46:40.708Z,3.60
2018-11-03T10:49:09.410Z,5.27
2018-11-03T10:51:38.083Z,6.33
2018-11-03T10:54:07.090Z,5.70
2018-11-03T10:56:35.455Z,4.10
2018-11-03T10:59:04.185Z,3.70
2018-11-03T11:01:38.688Z,3.77
2018-11-03T11:04:12.553Z,4.20
2018-11-03T11:06:46.528Z,7.03
2018-11-03T11:09:20.165Z,6.00
2018-11-03T11:11:54.032Z,6.73
2018-11-03T11:14:22.463Z,4.07
2018-11-03T11:16:51.171Z,3.77
2018-11-03T11:19:19.841Z,3.27
2018-11-03T11:21:48.523Z,5.50
2018-11-03T11:24:17.445Z,5.33
2018-11-03T11:26:45.890Z,3.30
2018-11-03T11:29:14.578Z,3.33
2018-11-03T11:31:42.922Z,2.67
2018-11-03T11:34:12.108Z,3.00
2018-11-03T11:36:40.435Z,3.10
2018-11-03T11:39:08.815Z,3.40
2018-11-03T11:41:37.220Z,3.30
2018-11-03T11:44:05.646Z,3.90
2018-11-03T11:46:34.149Z,2.67
2018-11-03T11:49:02.834Z,2.87
2018-11-03T11:51:31.529Z,2.43
2018-11-03T11:54:00.201Z,3.47
2018-11-03T11:56:29.334Z,2.20
2018-11-03T11:58:57.998Z,2.50
2018-11-03T12:01:26.782Z,2.83
2018-11-03T12:03:55.373Z,2.73
2018-11-03T12:06:24.049Z,1.90
2018-11-03T12:08:53.551Z,4.20
2018-11-03T12:11:22.249Z,2.13
2018-11-03T12:13:50.914Z,2.33
2018-11-03T12:16:19.740Z,4.13
2018-11-03T12:18:48.301Z,2.63
2018-11-03T12:21:17.009Z,5.80
2018-11-03T12:23:45.688Z,2.30
2018-11-03T12:26:14.448Z,2.13
2018-11-03T12:28:43.057Z,1.57
2018-11-03T12:31:11.772Z,2.00
2018-11-03T12:33:40.421Z,2.00
2018-11-03T12:36:09.124Z,2.30
2018-11-03T12:38:38.008Z,1.67
2018-11-03T12:41:06.466Z,1.73
2018-11-03T12:43:35.160Z,1.80
2018-11-03T12:46:03.891Z,1.83
2018-11-03T12:48:32.539Z,1.80
2018-11-03T12:51:01.209Z,2.03
2018-11-03T12:53:29.926Z,2.17
2018-11-03T12:55:58.583Z,1.50
2018-11-03T12:58:27.267Z,1.73
2018-11-03T13:00:55.981Z,1.37
2018-11-03T13:03:24.660Z,1.40
2018-11-03T13:05:53.329Z,1.50
2018-11-03T13:08:21.781Z,2.73
2018-11-03T13:10:50.274Z,1.87
2018-11-03T13:13:18.979Z,1.53
2018-11-03T13:15:48.648Z,1.50
2018-11-03T13:18:17.172Z,1.60
2018-11-03T13:20:45.512Z,1.40
2018-11-03T13:23:14.122Z,1.73
2018-11-03T13:25:42.820Z,1.30
2018-11-03T13:28:11.556Z,1.10
2018-11-03T13:30:40.195Z,1.43
2018-11-03T13:33:08.903Z,1.27
2018-11-03T13:35:37.216Z,1.03
2018-11-03T13:38:05.939Z,3.33
2018-11-03T13:40:34.533Z,1.30
2018-11-03T13:43:04.480Z,1.40
2018-11-03T13:45:33.132Z,1.10
2018-11-03T13:48:01.819Z,2.10
2018-11-03T13:50:30.500Z,1.63
2018-11-03T13:52:59.187Z,3.07
2018-11-03T13:55:27.874Z,0.83
2018-11-03T13:57:56.574Z,6.63
2018-11-03T14:00:25.245Z,1.20
2018-11-03T14:02:53.928Z,1.10
2018-11-03T14:05:22.635Z,1.00
2018-11-03T14:07:51.306Z,0.90
2018-11-03T14:10:19.991Z,1.47
2018-11-03T14:12:48.676Z,1.30
2018-11-03T14:15:18.615Z,0.90
2018-11-03T14:17:47.679Z,1.30
2018-11-03T14:20:16.931Z,1.20
2018-11-03T14:22:45.978Z,0.93
2018-11-03T14:25:16.096Z,1.53
2018-11-03T14:27:45.472Z,1.00
2018-11-03T14:30:14.500Z,1.10
2018-11-03T14:32:43.384Z,0.70
2018-11-03T14:35:12.698Z,0.87
2018-11-03T14:37:42.047Z,0.70
2018-11-03T14:40:12.927Z,0.80
2018-11-03T14:42:42.430Z,1.80
2018-11-03T14:45:11.984Z,1.20
2018-11-03T14:47:40.826Z,1.00
2018-11-03T14:50:10.107Z,0.70
2018-11-03T14:52:40.057Z,1.00
2018-11-03T14:55:09.680Z,0.83
2018-11-03T14:57:38.565Z,1.03
2018-11-03T15:00:12.359Z,1.50
2018-11-03T15:02:41.121Z,0.63
2018-11-03T15:05:10.439Z,0.90
2018-11-03T15:07:39.323Z,0.83
2018-11-03T15:10:09.238Z,2.87
2018-11-03T15:12:38.106Z,0.67
2018-11-03T15:15:08.154Z,1.00
2018-11-03T15:17:36.437Z,0.70
2018-11-03T15:20:06.231Z,0.93
2018-11-03T15:22:34.618Z,1.13
2018-11-03T15:25:03.112Z,1.20
2018-11-03T15:27:31.807Z,0.87
2018-11-03T15:30:00.480Z,1.00
2018-11-03T15:32:29.176Z,0.97
2018-11-03T15:34:57.910Z,1.37
2018-11-03T15:37:26.723Z,0.90
2018-11-03T15:39:55.314Z,0.83
2018-11-03T15:42:24.169Z,0.80
2018-11-03T15:44:52.601Z,2.20
2018-11-03T15:47:20.999Z,0.87
2018-11-03T15:49:49.569Z,1.20
2018-11-03T15:52:18.260Z,1.20
2018-11-03T15:54:46.986Z,0.97
2018-11-03T15:57:15.620Z,1.30
2018-11-03T15:59:43.972Z,0.97
2018-11-03T16:02:12.579Z,1.07
2018-11-03T16:04:41.291Z,1.00
2018-11-03T16:07:10.420Z,1.13
2018-11-03T16:09:39.035Z,1.17
2018-11-03T16:12:07.797Z,1.30
2018-11-03T16:14:36.412Z,1.20
2018-11-03T16:17:05.523Z,1.57
2018-11-03T16:19:34.255Z,1.37
2018-11-03T16:22:02.861Z,1.60
2018-11-03T16:24:31.919Z,1.10
2018-11-03T16:27:00.664Z,1.37
2018-11-03T16:29:29.362Z,1.60
2018-11-03T16:31:57.781Z,1.50
2018-11-03T16:34:26.294Z,3.50
2018-11-03T16:36:54.639Z,1.47
2018-11-03T16:39:23.278Z,1.60
2018-11-03T16:41:51.967Z,1.30
2018-11-03T16:44:20.647Z,1.80
2018-11-03T16:46:49.603Z,1.30
2018-11-03T16:49:19.171Z,1.30
2018-11-03T16:51:47.955Z,1.90
2018-11-03T16:54:16.607Z,1.70
2018-11-03T16:56:45.982Z,1.60
2018-11-03T16:59:14.391Z,2.57
2018-11-03T17:01:42.931Z,2.00
2018-11-03T17:04:11.335Z,5.80
2018-11-03T17:06:40.039Z,2.00
2018-11-03T17:09:09.003Z,2.30
2018-11-03T17:11:37.522Z,1.97
2018-11-03T17:14:06.172Z,1.93
2018-11-03T17:16:34.583Z,2.33
2018-11-03T17:19:03.075Z,2.70
2018-11-03T17:21:31.752Z,2.80
2018-11-03T17:24:00.437Z,3.13
2018-11-03T17:26:29.109Z,3.40
2018-11-03T17:28:57.801Z,2.70
2018-11-03T17:31:26.496Z,2.73
2018-11-03T17:33:55.160Z,3.03
2018-11-03T17:36:23.892Z,2.47
2018-11-03T17:38:52.557Z,2.60
2018-11-03T17:41:21.235Z,2.63
2018-11-03T17:43:49.934Z,2.90
2018-11-03T17:46:18.621Z,2.67
2018-11-03T17:48:47.305Z,3.73
2018-11-03T17:51:16.003Z,3.27
2018-11-03T17:53:44.679Z,3.07
2018-11-03T17:56:13.355Z,3.40
2018-11-03T17:58:42.035Z,3.53
2018-11-03T18:01:10.482Z,3.50
2018-11-03T18:03:39.017Z,3.60
2018-11-03T18:06:07.996Z,3.10
2018-11-03T18:08:36.456Z,4.27
2018-11-03T18:11:05.979Z,4.30
2018-11-03T18:13:34.863Z,4.17
2018-11-03T18:16:03.447Z,4.03
2018-11-03T18:18:31.964Z,5.97
2018-11-03T18:21:00.646Z,4.43
2018-11-03T18:23:29.411Z,3.60
2018-11-03T18:25:58.037Z,4.30
2018-11-03T18:28:26.734Z,4.53
2018-11-03T18:30:55.502Z,5.33
2018-11-03T18:33:23.884Z,5.50
2018-11-03T18:35:52.369Z,4.63
2018-11-03T18:38:21.035Z,4.33
2018-11-03T18:40:49.760Z,5.63
2018-11-03T18:43:18.477Z,6.27
2018-11-03T18:45:47.512Z,5.30
2018-11-03T18:48:16.187Z,3.93
2018-11-03T18:50:44.871Z,9.73
2018-11-03T18:53:13.579Z,3.90
2018-11-03T18:55:42.239Z,3.87
2018-11-03T18:58:11.009Z,5.20
2018-11-03T19:00:39.625Z,3.40
2018-11-03T19:03:07.998Z,4.43
2018-11-03T19:05:36.387Z,12.13
2018-11-03T19:08:05.571Z,5.23
2018-11-03T19:10:34.140Z,8.33
2018-11-03T19:13:02.483Z,5.17
2018-11-03T19:15:30.876Z,4.60
2018-11-03T19:17:59.600Z,7.83
2018-11-03T19:20:28.128Z,8.03
2018-11-03T19:22:56.610Z,5.13
2018-11-03T19:25:25.256Z,5.70
2018-11-03T19:27:53.939Z,6.90
2018-11-03T19:30:22.669Z,5.00
2018-11-03T19:32:51.328Z,4.40
2018-11-03T19:35:20.004Z,4.37
2018-11-03T19:37:48.750Z,6.13
2018-11-03T19:40:17.410Z,4.90
2018-11-03T19:42:46.117Z,5.23
2018-11-03T19:45:14.802Z,5.47
2018-11-03T19:47:43.468Z,5.07
2018-11-03T19:50:12.142Z,5.03
2018-11-03T19:52:40.817Z,5.40
2018-11-03T19:55:09.507Z,5.20
2018-11-03T19:57:38.191Z,9.53
2018-11-03T20:00:09.952Z,9.83
2018-11-03T20:02:38.467Z,5.40
2018-11-03T20:05:07.419Z,5.43
2018-11-03T20:07:35.803Z,5.47
2018-11-03T20:10:04.645Z,6.30
2018-11-03T20:12:33.173Z,8.00
2018-11-03T20:15:01.888Z,5.73
2018-11-03T20:17:30.555Z,7.57
2018-11-03T20:19:59.240Z,6.43
2018-11-03T20:22:28.368Z,6.37
2018-11-03T20:24:57.017Z,5.33
2018-11-03T20:27:25.703Z,7.50
2018-11-03T20:29:54.017Z,5.60
2018-11-03T20:32:22.596Z,5.60
2018-11-03T20:34:50.957Z,6.50
2018-11-03T20:37:19.656Z,5.87
2018-11-03T20:39:48.335Z,7.57
2018-11-03T20:42:17.024Z,7.63
2018-11-03T20:44:45.707Z,12.13
2018-11-03T20:47:14.397Z,6.00
2018-11-03T20:49:43.101Z,9.20
2018-11-03T20:52:11.831Z,5.93
2018-11-03T20:54:40.471Z,6.37
2018-11-03T20:57:09.201Z,7.97
2018-11-03T20:59:37.847Z,7.77
2018-11-03T21:02:06.560Z,9.53
2018-11-03T21:04:35.203Z,6.87
2018-11-03T21:07:03.901Z,6.43
2018-11-03T21:09:32.211Z,5.73
2018-11-03T21:12:01.271Z,6.90
2018-11-03T21:14:29.969Z,6.30
2018-11-03T21:16:58.718Z,6.23
2018-11-03T21:19:27.347Z,5.60
2018-11-03T21:21:56.027Z,7.90
2018-11-03T21:24:24.697Z,6.37
2018-11-03T21:26:53.398Z,8.70
2018-11-03T21:29:22.139Z,7.40
2018-11-03T21:31:50.858Z,9.23
2018-11-03T21:34:19.463Z,6.63
2018-11-03T21:36:48.348Z,5.73
2018-11-03T21:39:16.827Z,11.23
2018-11-03T21:41:50.076Z,6.67
2018-11-03T21:44:18.727Z,6.50
2018-11-03T21:46:47.446Z,7.70
2018-11-03T21:49:16.380Z,8.40
2018-11-03T21:51:44.723Z,9.03
2018-11-03T21:54:13.463Z,6.50
2018-11-03T21:56:42.431Z,7.50
2018-11-03T21:59:10.856Z,7.03
2018-11-03T22:01:39.183Z,9.80
2018-11-03T22:04:07.800Z,8.00
2018-11-03T22:06:36.508Z,8.73
2018-11-03T22:09:07.932Z,7.00
2018-11-03T22:11:36.777Z,8.37
2018-11-03T22:14:05.522Z,6.40
2018-11-03T22:16:34.113Z,8.37
2018-11-03T22:19:02.432Z,8.03
2018-11-03T22:21:31.725Z,7.47
2018-11-03T22:24:00.759Z,7.17
2018-11-03T22:26:29.283Z,8.63
2018-11-03T22:28:57.945Z,7.33
2018-11-03T22:31:26.644Z,6.03
2018-11-03T22:33:55.327Z,8.37
2018-11-03T22:36:24.019Z,8.13
2018-11-03T22:38:52.708Z,8.17
2018-11-03T22:41:21.381Z,8.13
2018-11-03T22:43:50.199Z,6.80
2018-11-03T22:46:18.788Z,8.13
2018-11-03T22:48:47.483Z,8.93
2018-11-03T22:51:16.212Z,7.73
2018-11-03T22:53:46.147Z,7.37
2018-11-03T22:56:15.175Z,8.13
2018-11-03T22:58:43.848Z,9.20
2018-11-03T23:01:12.543Z,6.70
2018-11-03T23:03:41.316Z,7.63
2018-11-03T23:06:09.915Z,10.20
2018-11-03T23:08:38.602Z,8.13
2018-11-03T23:11:07.290Z,8.33
2018-11-03T23:13:35.978Z,8.07
2018-11-03T23:16:04.299Z,8.60
2018-11-03T23:18:32.939Z,11.07
2018-11-03T23:21:01.631Z,7.33
2018-11-03T23:23:30.300Z,7.83
2018-11-03T23:25:58.796Z,9.00
2018-11-03T23:28:27.268Z,10.80
2018-11-03T23:30:55.952Z,8.70
2018-11-03T23:33:24.635Z,9.37
2018-11-03T23:35:53.342Z,9.00
2018-11-03T23:38:22.038Z,12.23
2018-11-03T23:40:50.387Z,11.17
2018-11-03T23:43:18.993Z,11.40
2018-11-03T23:45:47.666Z,9.47
2018-11-03T23:48:16.368Z,9.70
2018-11-03T23:50:45.070Z,9.17
2018-11-03T23:53:13.443Z,8.73
2018-11-03T23:55:41.843Z,12.33
2018-11-03T23:58:10.205Z,12.20
